Terminal Aerodrome Forecast
Issued by NWS Cleveland, OH

Home | Current Version | Previous Version | Text Only | Print | Product List | Glossary Off
Versions: 1 2 3 4 5 6 7 8 9 10 11 12 13 14 15 16 17 18

000
FTUS41 KCLE 210523
TAFTOL
TAF
KTOL 210523Z 2106/2206 VRB03KT 5SM BR FEW050 SCT250
      TEMPO 2109/2113 2SM BR
     FM211500 17004KT P6SM SCT250
     FM211800 16007KT P6SM SCT045
     FM220000 11003KT P6SM FEW250=

USA.gov is the U.S. government's official web portal to all federal, state and local government web resources and services.